Terminal Aerodrome Forecast
Issued by NWS Cheyenne, WY

Home | Current Version | Previous Version | Text Only | Print | Product List | Glossary On
Versions: 1 2 3 4 5 6 7 8 9 10 11 12 13 14 15 16
000
FTUS45 KCYS 302320
TAFCYS
TAF
KCYS 302320Z 3100/3124 27011KT P6SM VCTS SCT070CB BKN090
     FM310200 32013KT P6SM BKN090
     FM310600 35014KT P6SM OVC035
     FM311500 30010G20KT P6SM BKN080
     FM311900 35011G22KT P6SM BKN080=

USA.gov is the U.S. government's official web portal to all federal, state and local government web resources and services.